createdAt,value
2024-02-13T00:00:55.350Z,1.899999976
2024-02-13T00:01:56.591Z,1.899999976
2024-02-13T00:02:58.309Z,1.899999976
2024-02-13T00:03:59.943Z,1.899999976
2024-02-13T00:05:01.566Z,2
2024-02-13T00:06:03.358Z,2
2024-02-13T00:07:04.508Z,2.200000048
2024-02-13T00:08:05.863Z,2
2024-02-13T00:09:07.515Z,1.700000048
2024-02-13T00:10:09.138Z,1.799999952
2024-02-13T00:11:42.337Z,1.700000048
2024-02-13T00:12:43.666Z,1.799999952
2024-02-13T00:13:45.240Z,1.899999976
2024-02-13T00:14:47.489Z,1.700000048
2024-02-13T00:15:48.399Z,2.200000048
2024-02-13T00:16:50.424Z,2.099999905
2024-02-13T00:17:52.365Z,1.799999952
2024-02-13T00:18:53.612Z,2
2024-02-13T00:19:55.007Z,1.899999976
2024-02-13T00:20:56.521Z,1.799999952
2024-02-13T00:21:58.093Z,2.200000048
2024-02-13T00:22:59.633Z,2.400000095
2024-02-13T00:24:02.611Z,3.5
2024-02-13T00:25:04.013Z,2.400000095
2024-02-13T00:26:05.728Z,2.299999952
2024-02-13T00:27:07.418Z,1.799999952
2024-02-13T00:28:09.281Z,1.600000024
2024-02-13T00:29:41.898Z,2
2024-02-13T00:30:43.112Z,1.899999976
2024-02-13T00:31:44.398Z,1.5
2024-02-13T00:32:45.810Z,1.799999952
2024-02-13T00:33:46.896Z,1.799999952
2024-02-13T00:34:47.931Z,1.5
2024-02-13T00:35:49.081Z,1.799999952
2024-02-13T00:36:50.490Z,1.600000024
2024-02-13T00:37:51.882Z,1.600000024
2024-02-13T00:38:53.308Z,1.899999976
2024-02-13T00:39:54.712Z,1.899999976
2024-02-13T00:40:56.611Z,1.600000024
2024-02-13T00:41:57.813Z,1.799999952
2024-02-13T00:42:59.039Z,1.700000048
2024-02-13T00:44:00.370Z,1.799999952
2024-02-13T00:45:01.909Z,2.299999952
2024-02-13T00:46:02.994Z,1.799999952
2024-02-13T00:47:04.189Z,1.799999952
2024-02-13T00:48:05.536Z,2.099999905
2024-02-13T00:49:06.306Z,1.799999952
2024-02-13T00:50:07.683Z,1.899999976
2024-02-13T00:51:08.767Z,1.700000048
2024-02-13T00:52:10.438Z,1.600000024
2024-02-13T00:53:42.379Z,1.700000048
2024-02-13T00:54:43.736Z,1.5
2024-02-13T00:55:44.896Z,1.399999976
2024-02-13T00:56:46.346Z,1.600000024
2024-02-13T00:57:47.561Z,1.700000048
2024-02-13T00:58:48.746Z,1.700000048
2024-02-13T00:59:50.119Z,1.5
2024-02-13T01:00:51.287Z,1.799999952
2024-02-13T01:01:52.534Z,2
2024-02-13T01:02:54.173Z,1.700000048
2024-02-13T01:03:55.391Z,1.899999976
2024-02-13T01:04:56.416Z,1.799999952
2024-02-13T01:05:57.773Z,1.799999952
2024-02-13T01:06:58.903Z,1.600000024
2024-02-13T01:08:00.300Z,1.899999976
2024-02-13T01:09:01.836Z,1.600000024
2024-02-13T01:10:03.016Z,1.799999952
2024-02-13T01:11:04.205Z,1.700000048
2024-02-13T01:12:05.363Z,1.600000024
2024-02-13T01:13:06.711Z,1.600000024
2024-02-13T01:14:07.844Z,1.700000048
2024-02-13T01:15:09.191Z,1.799999952
2024-02-13T01:16:41.619Z,2
2024-02-13T01:17:42.828Z,1.799999952
2024-02-13T01:18:44.072Z,1.799999952
2024-02-13T01:19:45.176Z,1.799999952
2024-02-13T01:20:46.333Z,1.700000048
2024-02-13T01:21:47.561Z,1.700000048
2024-02-13T01:22:48.710Z,1.700000048
2024-02-13T01:23:50.150Z,1.600000024
2024-02-13T01:24:51.251Z,1.5
2024-02-13T01:25:52.539Z,1.799999952
2024-02-13T01:26:53.689Z,1.600000024
2024-02-13T01:27:54.783Z,1.5
2024-02-13T01:28:56.125Z,1.799999952
2024-02-13T01:29:56.561Z,1.700000048
2024-02-13T01:30:57.094Z,1.5
2024-02-13T01:31:57.793Z,1.700000048
2024-02-13T01:32:58.622Z,1.600000024
2024-02-13T01:33:59.254Z,1.700000048
2024-02-13T01:34:59.862Z,1.600000024
2024-02-13T01:36:00.541Z,1.700000048
2024-02-13T01:37:01.197Z,1.399999976
2024-02-13T01:38:01.881Z,1.600000024
2024-02-13T01:39:02.559Z,1.399999976
2024-02-13T01:40:03.295Z,1.600000024
2024-02-13T01:41:04.009Z,1.399999976
2024-02-13T01:42:04.774Z,1.600000024
2024-02-13T01:43:05.588Z,1.600000024
2024-02-13T01:44:06.501Z,1.399999976
2024-02-13T01:45:07.202Z,1.700000048
2024-02-13T01:46:07.925Z,1.600000024
2024-02-13T01:47:40.440Z,1.700000048
2024-02-13T01:49:41.173Z,1.5
2024-02-13T01:50:42.051Z,1.5
2024-02-13T01:51:42.724Z,1.299999952
2024-02-13T01:52:43.792Z,1.5
2024-02-13T01:53:44.690Z,1.700000048
2024-02-13T01:54:45.448Z,1.399999976
2024-02-13T01:55:46.201Z,1.5
2024-02-13T01:56:47.000Z,1.399999976
2024-02-13T01:57:47.693Z,1.299999952
2024-02-13T01:58:48.428Z,1.200000048
2024-02-13T01:59:49.319Z,1.600000024
2024-02-13T02:00:50.215Z,1.399999976
2024-02-13T02:01:50.848Z,1.200000048
2024-02-13T02:02:51.876Z,1.299999952
2024-02-13T02:03:52.657Z,1.5
2024-02-13T02:04:53.422Z,1.299999952
2024-02-13T02:05:54.168Z,1.5
2024-02-13T02:06:55.120Z,1.5
2024-02-13T02:07:55.901Z,1.299999952
2024-02-13T02:08:56.978Z,1.399999976
2024-02-13T02:09:57.703Z,1.299999952
2024-02-13T02:10:58.504Z,1.399999976
2024-02-13T02:11:59.439Z,1.399999976
2024-02-13T02:13:00.262Z,1.600000024
2024-02-13T02:14:01.080Z,1.299999952
2024-02-13T02:15:01.894Z,1.100000024
2024-02-13T02:16:02.742Z,1.299999952
2024-02-13T02:17:03.489Z,1
2024-02-13T02:18:04.378Z,1.299999952
2024-02-13T02:19:05.268Z,1.700000048
2024-02-13T02:20:05.591Z,1.200000048
2024-02-13T02:21:06.474Z,1.299999952
2024-02-13T02:22:07.209Z,1.399999976
2024-02-13T02:23:40.198Z,1.299999952
2024-02-13T02:25:40.301Z,1.5
2024-02-13T02:26:41.027Z,1.299999952
2024-02-13T02:27:41.825Z,1.100000024
2024-02-13T02:28:42.473Z,1.399999976
2024-02-13T02:29:43.259Z,1.200000048
2024-02-13T02:30:44.148Z,1.299999952
2024-02-13T02:31:44.969Z,1.600000024
2024-02-13T02:32:45.929Z,1.299999952
2024-02-13T02:33:46.790Z,1.299999952
2024-02-13T02:34:47.621Z,1.200000048
2024-02-13T02:35:48.453Z,1.200000048
2024-02-13T02:36:49.086Z,1.5
2024-02-13T02:37:50.017Z,1.5
2024-02-13T02:38:50.919Z,1.200000048
2024-02-13T02:39:51.697Z,1.299999952
2024-02-13T02:40:52.451Z,1.100000024
2024-02-13T02:41:53.228Z,1.200000048
2024-02-13T02:42:54.187Z,1.299999952
2024-02-13T02:43:54.980Z,1.600000024
2024-02-13T02:44:55.748Z,1.700000048
2024-02-13T02:45:56.359Z,1.100000024
2024-02-13T02:46:57.159Z,1.200000048
2024-02-13T02:47:58.085Z,1.399999976
2024-02-13T02:48:58.858Z,1.100000024
2024-02-13T02:49:59.675Z,1.700000048
2024-02-13T02:51:00.537Z,1.5
2024-02-13T02:52:01.113Z,1.299999952
2024-02-13T02:53:01.927Z,1.299999952
2024-02-13T02:54:02.760Z,1.299999952
2024-02-13T02:55:03.545Z,1.399999976
2024-02-13T02:56:04.446Z,1.399999976
2024-02-13T02:57:05.170Z,1.399999976
2024-02-13T02:58:05.873Z,1.799999952
2024-02-13T02:59:06.649Z,1.299999952
2024-02-13T03:00:39.706Z,1.100000024
2024-02-13T03:02:39.692Z,1.100000024
2024-02-13T03:03:40.512Z,1.399999976
2024-02-13T03:04:41.232Z,1.200000048
2024-02-13T03:05:42.161Z,1.5
2024-02-13T03:06:42.740Z,1.200000048
2024-02-13T03:07:43.513Z,1.299999952
2024-02-13T03:08:44.248Z,1.200000048
2024-02-13T03:09:44.889Z,1.5
2024-02-13T03:10:45.632Z,1.200000048
2024-02-13T03:11:46.429Z,1.399999976
2024-02-13T03:12:47.167Z,1.200000048
2024-02-13T03:13:47.894Z,1.100000024
2024-02-13T03:14:49.367Z,1.600000024
2024-02-13T03:15:50.123Z,1.5
2024-02-13T03:16:50.874Z,1.200000048
2024-02-13T03:17:51.846Z,1.299999952
2024-02-13T03:18:52.615Z,1.299999952
2024-02-13T03:19:53.253Z,1.299999952
2024-02-13T03:20:54.108Z,1.200000048
2024-02-13T03:21:54.706Z,1.200000048
2024-02-13T03:22:55.575Z,1.100000024
2024-02-13T03:23:56.466Z,1.399999976
2024-02-13T03:24:57.239Z,1.200000048
2024-02-13T03:25:57.956Z,1.299999952
2024-02-13T03:26:58.787Z,1.799999952
2024-02-13T03:27:59.713Z,1
2024-02-13T03:29:00.488Z,1.200000048
2024-02-13T03:30:01.301Z,1.299999952
2024-02-13T03:31:02.046Z,1.299999952
2024-02-13T03:32:02.796Z,1.399999976
2024-02-13T03:33:03.767Z,1.200000048
2024-02-13T03:34:04.700Z,1
2024-02-13T03:35:05.353Z,1.200000048
2024-02-13T03:36:06.057Z,1.5
2024-02-13T03:37:06.834Z,1.200000048
2024-02-13T03:38:38.439Z,1.200000048
2024-02-13T03:39:39.197Z,1.399999976
2024-02-13T03:40:40.225Z,1.200000048
2024-02-13T03:41:41.088Z,1.600000024
2024-02-13T03:42:41.791Z,1.100000024
2024-02-13T03:43:42.554Z,1.100000024
2024-02-13T03:44:43.388Z,1.299999952
2024-02-13T03:45:44.102Z,1
2024-02-13T03:46:44.877Z,1.5
2024-02-13T03:47:47.249Z,1
2024-02-13T03:49:48.736Z,1.299999952
2024-02-13T03:51:48.305Z,1.299999952
2024-02-13T03:52:49.020Z,1.299999952
2024-02-13T03:53:49.884Z,1.299999952
2024-02-13T03:54:50.827Z,1
2024-02-13T03:55:51.574Z,1.200000048
2024-02-13T03:56:52.375Z,1.299999952
2024-02-13T03:57:53.058Z,1.299999952
2024-02-13T03:58:53.891Z,1
2024-02-13T03:59:54.688Z,1.200000048
2024-02-13T04:00:55.399Z,1.100000024
2024-02-13T04:01:56.135Z,1.299999952
2024-02-13T04:02:57.008Z,1.299999952
2024-02-13T04:03:58.042Z,1.299999952
2024-02-13T04:04:59.013Z,1.200000048
2024-02-13T04:05:59.972Z,1.200000048
2024-02-13T04:07:00.648Z,1.200000048
2024-02-13T04:08:01.538Z,1.200000048
2024-02-13T04:09:02.398Z,1.100000024
2024-02-13T04:10:03.206Z,1.100000024
2024-02-13T04:11:04.179Z,1.399999976
2024-02-13T04:12:04.927Z,1.200000048
2024-02-13T04:13:39.443Z,1.299999952
2024-02-13T04:14:40.177Z,1.100000024
2024-02-13T04:16:39.078Z,1.200000048
2024-02-13T04:17:40.137Z,1.299999952
2024-02-13T04:18:41.081Z,1.200000048
2024-02-13T04:19:41.961Z,1.200000048
2024-02-13T04:20:42.657Z,1.299999952
2024-02-13T04:21:43.591Z,1.399999976
2024-02-13T04:22:44.389Z,1.200000048
2024-02-13T04:23:45.335Z,1.299999952
2024-02-13T04:24:46.133Z,1.5
2024-02-13T04:25:46.977Z,1.100000024
2024-02-13T04:26:47.761Z,1.200000048
2024-02-13T04:27:48.706Z,1.299999952
2024-02-13T04:28:49.833Z,1.200000048
2024-02-13T04:29:51.036Z,1.299999952
2024-02-13T04:30:51.684Z,1.600000024
2024-02-13T04:31:52.546Z,1.5
2024-02-13T04:32:53.622Z,1.399999976
2024-02-13T04:33:54.210Z,1.399999976
2024-02-13T04:34:54.876Z,1.399999976
2024-02-13T04:35:55.586Z,1.399999976
2024-02-13T04:36:56.439Z,1
2024-02-13T04:37:57.280Z,1.299999952
2024-02-13T04:38:58.152Z,1.100000024
2024-02-13T04:39:59.077Z,1.200000048
2024-02-13T04:40:59.910Z,1.600000024
2024-02-13T04:42:00.912Z,1.5
2024-02-13T04:43:01.665Z,1.700000048
2024-02-13T04:44:02.417Z,1.399999976
2024-02-13T04:45:03.257Z,1.5
2024-02-13T04:46:04.130Z,1.100000024
2024-02-13T04:47:04.972Z,1.399999976
2024-02-13T04:48:38.882Z,1.399999976
2024-02-13T04:49:39.396Z,1.600000024
2024-02-13T04:51:39.003Z,1.399999976
2024-02-13T04:52:39.720Z,1.600000024
2024-02-13T04:53:40.406Z,1.5
2024-02-13T04:54:41.127Z,1.5
2024-02-13T04:55:41.966Z,1.299999952
2024-02-13T04:56:42.744Z,1.5
2024-02-13T04:57:43.374Z,1.399999976
2024-02-13T04:58:44.053Z,1.5
2024-02-13T04:59:44.931Z,1.5
2024-02-13T05:00:45.689Z,1.5
2024-02-13T05:01:46.489Z,1.5
2024-02-13T05:02:47.214Z,1.600000024
2024-02-13T05:03:48.102Z,1.5
2024-02-13T05:04:48.814Z,1.700000048
2024-02-13T05:05:49.945Z,1.600000024
2024-02-13T05:06:50.712Z,1.5
2024-02-13T05:07:51.343Z,1.600000024
2024-02-13T05:08:52.223Z,1.700000048
2024-02-13T05:09:52.877Z,1.799999952
2024-02-13T05:10:53.633Z,1.399999976
2024-02-13T05:11:54.518Z,1.700000048
2024-02-13T05:12:55.288Z,1.399999976
2024-02-13T05:13:59.011Z,1.299999952
2024-02-13T05:14:57.118Z,1.899999976
2024-02-13T05:15:58.163Z,1.399999976
2024-02-13T05:16:58.918Z,1.700000048
2024-02-13T05:17:59.738Z,1.700000048
2024-02-13T05:19:00.631Z,1.5
2024-02-13T05:20:01.036Z,1.700000048
2024-02-13T05:21:01.943Z,1.700000048
2024-02-13T05:22:02.722Z,1.600000024
2024-02-13T05:23:03.742Z,1.899999976
2024-02-13T05:24:04.684Z,1.600000024
2024-02-13T05:25:05.421Z,1.700000048
2024-02-13T05:26:38.865Z,1.299999952
2024-02-13T05:28:38.824Z,1.399999976
2024-02-13T05:29:39.529Z,2.099999905
2024-02-13T05:30:40.276Z,2.200000048
2024-02-13T05:31:41.097Z,2
2024-02-13T05:32:41.934Z,2.5
2024-02-13T05:33:42.761Z,2.200000048
2024-02-13T05:34:43.464Z,2.299999952
2024-02-13T05:35:44.389Z,2
2024-02-13T05:36:45.119Z,1.799999952
2024-02-13T05:37:45.909Z,1.600000024
2024-02-13T05:38:46.848Z,2
2024-02-13T05:39:47.421Z,1.899999976
2024-02-13T05:40:48.375Z,1.600000024
2024-02-13T05:41:49.296Z,1.600000024
2024-02-13T05:42:50.262Z,2.400000095
2024-02-13T05:43:51.067Z,2.200000048
2024-02-13T05:44:52.191Z,2.299999952
2024-02-13T05:45:53.031Z,2.200000048
2024-02-13T05:46:53.760Z,2
2024-02-13T05:47:54.657Z,2.099999905
2024-02-13T05:48:55.344Z,1.899999976
2024-02-13T05:49:56.160Z,2.400000095
2024-02-13T05:50:57.069Z,1.700000048
2024-02-13T05:51:57.948Z,1.799999952
2024-02-13T05:52:58.709Z,2.099999905
2024-02-13T05:53:59.974Z,2
2024-02-13T05:55:00.671Z,2.099999905
2024-02-13T05:56:01.540Z,2
2024-02-13T05:57:02.266Z,1.700000048
2024-02-13T05:58:02.988Z,2
2024-02-13T05:59:03.685Z,2
2024-02-13T06:00:04.688Z,2.099999905
2024-02-13T06:01:37.887Z,2
2024-02-13T06:02:38.501Z,2
2024-02-13T06:04:38.405Z,1.799999952
2024-02-13T06:05:39.213Z,2.299999952
2024-02-13T06:06:39.978Z,2.099999905
2024-02-13T06:07:40.609Z,2.299999952
2024-02-13T06:08:41.635Z,1.700000048
2024-02-13T06:09:42.246Z,2
2024-02-13T06:10:43.004Z,2.099999905
2024-02-13T06:11:43.785Z,2
2024-02-13T06:12:44.482Z,2.099999905
2024-02-13T06:13:45.098Z,2.099999905
2024-02-13T06:14:45.945Z,2.299999952
2024-02-13T06:15:46.745Z,1.899999976
2024-02-13T06:16:47.436Z,2.099999905
2024-02-13T06:17:48.369Z,2.099999905
2024-02-13T06:18:49.510Z,1.600000024
2024-02-13T06:19:50.103Z,2
2024-02-13T06:20:51.059Z,1.700000048
2024-02-13T06:21:51.719Z,1.700000048
2024-02-13T06:22:52.457Z,1.5
2024-02-13T06:23:53.340Z,1.700000048
2024-02-13T06:24:54.013Z,1.600000024
2024-02-13T06:25:54.822Z,1.600000024
2024-02-13T06:26:57.114Z,1.5
2024-02-13T06:27:56.996Z,2.299999952
2024-02-13T06:28:58.111Z,2.099999905
2024-02-13T06:29:58.982Z,2
2024-02-13T06:30:59.977Z,1.799999952
2024-02-13T06:32:03.902Z,2
2024-02-13T06:34:02.245Z,1.799999952
2024-02-13T06:35:02.954Z,1.700000048
2024-02-13T06:36:38.125Z,2.200000048
2024-02-13T06:37:39.005Z,1.899999976
2024-02-13T06:38:39.906Z,1.600000024
2024-02-13T06:40:37.752Z,1.100000024
2024-02-13T06:41:38.725Z,1.200000048
2024-02-13T06:42:39.532Z,1.700000048
2024-02-13T06:43:40.231Z,1.299999952
2024-02-13T06:44:41.089Z,1.200000048
2024-02-13T06:45:41.967Z,1.399999976
2024-02-13T06:46:42.749Z,1.299999952
2024-02-13T06:47:43.653Z,1.5
2024-02-13T06:48:44.537Z,1.5
2024-02-13T06:49:45.206Z,1.600000024
2024-02-13T06:50:46.116Z,1.5
2024-02-13T06:51:46.883Z,1.399999976
2024-02-13T06:52:47.700Z,1.700000048
2024-02-13T06:53:48.650Z,1.5
2024-02-13T06:54:50.758Z,1.5
2024-02-13T06:55:50.666Z,1.399999976
2024-02-13T06:56:51.591Z,1.399999976
2024-02-13T06:57:52.634Z,1.299999952
2024-02-13T06:58:53.329Z,1.299999952
2024-02-13T06:59:54.366Z,1.799999952
2024-02-13T07:00:55.148Z,1.5
2024-02-13T07:01:55.949Z,1.899999976
2024-02-13T07:02:56.920Z,1.600000024
2024-02-13T07:03:57.641Z,2
2024-02-13T07:04:58.426Z,1.899999976
2024-02-13T07:05:59.302Z,1.700000048
2024-02-13T07:07:09.054Z,1.799999952
2024-02-13T07:08:01.229Z,1.700000048
2024-02-13T07:09:02.052Z,2
2024-02-13T07:10:37.461Z,2
2024-02-13T07:11:38.182Z,1.899999976
2024-02-13T07:12:39.034Z,1.700000048
2024-02-13T07:14:37.617Z,1.899999976
2024-02-13T07:15:38.670Z,1.700000048
2024-02-13T07:16:41.093Z,1.899999976
2024-02-13T07:18:41.188Z,1.700000048
2024-02-13T07:19:41.969Z,1.700000048
2024-02-13T07:20:42.786Z,1.799999952
2024-02-13T07:21:43.588Z,1.600000024
2024-02-13T07:22:44.380Z,1.899999976
2024-02-13T07:23:45.177Z,2.099999905
2024-02-13T07:24:46.051Z,2.099999905
2024-02-13T07:25:47.100Z,2
2024-02-13T07:26:48.008Z,2
2024-02-13T07:27:49.009Z,2.099999905
2024-02-13T07:28:49.964Z,1.899999976
2024-02-13T07:29:50.962Z,2.5
2024-02-13T07:30:51.938Z,2
2024-02-13T07:31:52.874Z,2.200000048
2024-02-13T07:32:53.796Z,2.599999905
2024-02-13T07:33:54.621Z,2.200000048
2024-02-13T07:34:55.666Z,2.299999952
2024-02-13T07:35:56.899Z,2.5
2024-02-13T07:36:57.840Z,2.5
2024-02-13T07:37:58.642Z,2.400000095
2024-02-13T07:38:59.520Z,2.5
2024-02-13T07:40:00.308Z,2.5
2024-02-13T07:41:01.183Z,2.299999952
2024-02-13T07:42:02.071Z,2.5
2024-02-13T07:43:37.375Z,2.5
2024-02-13T07:44:38.221Z,2.799999952
2024-02-13T07:45:39.210Z,2.099999905
2024-02-13T07:47:37.863Z,2.099999905
2024-02-13T07:48:38.714Z,2.5
2024-02-13T07:49:39.697Z,2.099999905
2024-02-13T07:50:40.556Z,2.099999905
2024-02-13T07:51:41.704Z,2
2024-02-13T07:52:42.581Z,2.099999905
2024-02-13T07:53:43.581Z,2.099999905
2024-02-13T07:54:44.134Z,2.099999905
2024-02-13T07:55:44.850Z,2
2024-02-13T07:56:45.922Z,2
2024-02-13T07:57:46.785Z,2.299999952
2024-02-13T07:58:47.512Z,2.099999905
2024-02-13T07:59:48.546Z,2.299999952
2024-02-13T08:00:49.131Z,2.299999952
2024-02-13T08:01:50.257Z,2.299999952
2024-02-13T08:02:51.191Z,2.900000095
2024-02-13T08:03:52.177Z,2.599999905
2024-02-13T08:04:53.446Z,2
2024-02-13T08:05:54.157Z,2.200000048
2024-02-13T08:06:54.891Z,2
2024-02-13T08:07:55.731Z,1.899999976
2024-02-13T08:08:56.696Z,2.599999905
2024-02-13T08:09:57.485Z,2.400000095
2024-02-13T08:10:58.457Z,2.099999905
2024-02-13T08:11:59.381Z,1.799999952
2024-02-13T08:13:00.258Z,2
2024-02-13T08:14:01.160Z,2
2024-02-13T08:15:02.297Z,2.099999905
2024-02-13T08:16:37.574Z,2.200000048
2024-02-13T08:17:37.908Z,2.200000048
2024-02-13T08:19:36.950Z,2.099999905
2024-02-13T08:20:37.843Z,1.799999952
2024-02-13T08:21:38.617Z,1.899999976
2024-02-13T08:22:39.446Z,2.200000048
2024-02-13T08:23:40.436Z,2.299999952
2024-02-13T08:24:41.334Z,2
2024-02-13T08:25:42.272Z,2.599999905
2024-02-13T08:26:43.590Z,2.099999905
2024-02-13T08:27:44.625Z,1.899999976
2024-02-13T08:28:46.042Z,1.899999976
2024-02-13T08:29:47.170Z,2.200000048
2024-02-13T08:30:47.963Z,2.099999905
2024-02-13T08:31:48.914Z,2.5
2024-02-13T08:32:50.048Z,2.200000048
2024-02-13T08:33:51.053Z,2.700000048
2024-02-13T08:34:51.766Z,2.599999905
2024-02-13T08:35:52.618Z,2.200000048
2024-02-13T08:36:53.260Z,2.400000095
2024-02-13T08:37:56.750Z,2.299999952
2024-02-13T08:38:54.777Z,2.599999905
2024-02-13T08:39:55.439Z,2.299999952
2024-02-13T08:40:56.197Z,2.099999905
2024-02-13T08:41:57.661Z,2.299999952
2024-02-13T08:42:58.404Z,2.200000048
2024-02-13T08:43:59.028Z,2.200000048
2024-02-13T08:44:59.803Z,2.5
2024-02-13T08:46:00.690Z,2.099999905
2024-02-13T08:47:01.487Z,2.200000048
2024-02-13T08:48:02.511Z,2
2024-02-13T08:49:36.281Z,2.099999905
2024-02-13T08:50:36.918Z,2.299999952
2024-02-13T08:51:38.533Z,1.799999952
2024-02-13T08:53:36.900Z,2.099999905
2024-02-13T08:54:37.698Z,3.099999905
2024-02-13T08:55:38.462Z,2.299999952
2024-02-13T08:56:39.234Z,2.299999952
2024-02-13T08:57:39.933Z,2.099999905
2024-02-13T08:58:40.823Z,1.700000048
2024-02-13T08:59:41.676Z,2.299999952
2024-02-13T09:00:42.521Z,2
2024-02-13T09:01:43.326Z,1.899999976
2024-02-13T09:02:44.006Z,1.899999976
2024-02-13T09:03:44.714Z,1.5
2024-02-13T09:04:45.544Z,1.899999976
2024-02-13T09:05:46.408Z,1.600000024
2024-02-13T09:06:47.224Z,1.700000048
2024-02-13T09:07:47.948Z,1.799999952
2024-02-13T09:08:48.722Z,1.600000024
2024-02-13T09:09:49.306Z,1.5
2024-02-13T09:10:50.264Z,1.600000024
2024-02-13T09:11:51.003Z,1.700000048
2024-02-13T09:12:51.773Z,1.799999952
2024-02-13T09:13:52.762Z,1.700000048
2024-02-13T09:14:53.841Z,1.700000048
2024-02-13T09:15:54.446Z,1.899999976
2024-02-13T09:16:55.275Z,1.700000048
2024-02-13T09:17:56.156Z,2.5
2024-02-13T09:18:58.008Z,2.200000048
2024-02-13T09:19:57.897Z,2
2024-02-13T09:20:58.759Z,1.700000048
2024-02-13T09:21:59.404Z,2
2024-02-13T09:23:00.162Z,1.899999976
2024-02-13T09:24:00.835Z,1.600000024
2024-02-13T09:25:01.536Z,1.799999952
2024-02-13T09:26:02.501Z,1.899999976
2024-02-13T09:27:03.566Z,1.5
2024-02-13T09:28:04.258Z,1.799999952
2024-02-13T09:29:35.879Z,2
2024-02-13T09:30:36.735Z,1.799999952
2024-02-13T09:31:37.602Z,1.600000024
2024-02-13T09:32:38.539Z,1.899999976
2024-02-13T09:33:39.232Z,2.400000095
2024-02-13T09:34:39.873Z,1.799999952
2024-02-13T09:35:40.538Z,1.399999976
2024-02-13T09:36:41.371Z,1.899999976
2024-02-13T09:37:44.464Z,1.399999976
2024-02-13T09:38:43.886Z,1.600000024
2024-02-13T09:39:44.495Z,1.5
2024-02-13T09:40:45.399Z,1.600000024
2024-02-13T09:41:46.531Z,1.600000024
2024-02-13T09:42:47.546Z,1.5
2024-02-13T09:43:51.254Z,1.700000048
2024-02-13T09:44:49.992Z,1.299999952
2024-02-13T09:45:50.763Z,1.399999976
2024-02-13T09:46:51.906Z,1.5
2024-02-13T09:47:53.188Z,1.5
2024-02-13T09:48:54.374Z,1.5
2024-02-13T09:49:55.150Z,1.5
2024-02-13T09:50:56.048Z,1.799999952
2024-02-13T09:51:57.378Z,1.5
2024-02-13T09:52:58.160Z,1.5
2024-02-13T09:53:59.206Z,1.700000048
2024-02-13T09:55:00.217Z,1.700000048
2024-02-13T09:56:00.965Z,1.299999952
2024-02-13T09:57:01.902Z,1.299999952
2024-02-13T09:58:02.754Z,1.299999952
2024-02-13T09:59:35.967Z,1.399999976
2024-02-13T10:01:35.982Z,1.299999952
2024-02-13T10:02:36.770Z,1.100000024
2024-02-13T10:03:37.577Z,1.5
2024-02-13T10:04:38.201Z,1.299999952
2024-02-13T10:05:39.093Z,1.299999952
2024-02-13T10:06:40.156Z,1.5
2024-02-13T10:07:43.053Z,1.600000024
2024-02-13T10:08:42.269Z,1.399999976
2024-02-13T10:09:42.845Z,1.100000024
2024-02-13T10:10:43.993Z,1.399999976
2024-02-13T10:11:44.930Z,1.600000024
2024-02-13T10:12:45.842Z,1.200000048
2024-02-13T10:13:48.314Z,1.399999976
2024-02-13T10:14:47.586Z,1.299999952
2024-02-13T10:15:48.464Z,1.299999952
2024-02-13T10:16:49.789Z,1.100000024
2024-02-13T10:17:50.735Z,1.200000048
2024-02-13T10:18:51.571Z,1.700000048
2024-02-13T10:19:52.470Z,1.299999952
2024-02-13T10:20:53.320Z,1.100000024
2024-02-13T10:21:54.032Z,1.399999976
2024-02-13T10:22:54.908Z,1.299999952
2024-02-13T10:23:55.866Z,1.399999976
2024-02-13T10:24:56.598Z,1.299999952
2024-02-13T10:25:57.441Z,1.299999952
2024-02-13T10:26:58.300Z,1.299999952
2024-02-13T10:27:59.172Z,1.100000024
2024-02-13T10:29:00.027Z,1.299999952
2024-02-13T10:30:01.212Z,1.299999952
2024-02-13T10:31:02.015Z,1.299999952
2024-02-13T10:32:36.237Z,1.100000024
2024-02-13T10:33:37.271Z,1.200000048
2024-02-13T10:35:36.742Z,1.100000024
2024-02-13T10:36:37.964Z,1.399999976
2024-02-13T10:37:38.478Z,1.5
2024-02-13T10:38:39.100Z,1.399999976
2024-02-13T10:39:39.729Z,1
2024-02-13T10:40:40.514Z,1.100000024
2024-02-13T10:41:41.823Z,1.200000048
2024-02-13T10:42:42.075Z,0.800000012
2024-02-13T10:43:43.803Z,1.299999952
2024-02-13T10:44:43.889Z,1.600000024
2024-02-13T10:45:44.556Z,1.200000048
2024-02-13T10:46:45.373Z,1.299999952
2024-02-13T10:47:46.335Z,1.200000048
2024-02-13T10:48:47.287Z,3.099999905
2024-02-13T10:49:48.008Z,1.5
2024-02-13T10:50:49.112Z,1.5
2024-02-13T10:51:50.249Z,3.099999905
2024-02-13T10:52:51.060Z,6.599999905
2024-02-13T10:53:52.075Z,3.200000048
2024-02-13T10:54:53.130Z,1.700000048
2024-02-13T10:55:54.033Z,1
2024-02-13T10:56:54.944Z,1.299999952
2024-02-13T10:57:55.940Z,1.299999952
2024-02-13T10:58:57.102Z,1.100000024
2024-02-13T10:59:57.832Z,1.399999976
2024-02-13T11:00:58.600Z,2
2024-02-13T11:01:59.818Z,2.599999905
2024-02-13T11:03:01.000Z,2.299999952
2024-02-13T11:04:01.694Z,1.700000048
2024-02-13T11:05:02.716Z,1.399999976
2024-02-13T11:06:03.424Z,1
2024-02-13T11:07:34.706Z,1
2024-02-13T11:08:35.664Z,1.299999952
2024-02-13T11:09:36.404Z,1.299999952
2024-02-13T11:10:37.367Z,0.899999976
2024-02-13T11:11:38.304Z,0.899999976
2024-02-13T11:12:39.300Z,1
2024-02-13T11:13:40.144Z,1.200000048
2024-02-13T11:14:40.955Z,1
2024-02-13T11:15:41.789Z,0.899999976
2024-02-13T11:16:42.641Z,1.100000024
2024-02-13T11:17:43.603Z,0.899999976
2024-02-13T11:18:44.452Z,1.100000024
2024-02-13T11:19:46.631Z,0.800000012
2024-02-13T11:20:46.229Z,0.800000012
2024-02-13T11:21:47.296Z,0.800000012
2024-02-13T11:22:48.174Z,0.899999976
2024-02-13T11:23:49.025Z,0.800000012
2024-02-13T11:24:50.877Z,0.699999988
2024-02-13T11:25:51.339Z,0.699999988
2024-02-13T11:26:52.185Z,0.899999976
2024-02-13T11:27:52.854Z,0.899999976
2024-02-13T11:28:53.658Z,1
2024-02-13T11:29:54.329Z,2.299999952
2024-02-13T11:30:54.912Z,1.399999976
2024-02-13T11:31:55.727Z,1.299999952
2024-02-13T11:32:57.121Z,1.100000024
2024-02-13T11:33:58.442Z,0.800000012
2024-02-13T11:34:59.601Z,0.800000012
2024-02-13T11:36:00.608Z,0.800000012
2024-02-13T11:37:01.184Z,0.800000012
2024-02-13T11:38:02.057Z,0.800000012
2024-02-13T11:39:03.236Z,0.899999976
2024-02-13T11:40:35.283Z,0.899999976
2024-02-13T11:41:36.262Z,0.699999988
2024-02-13T11:42:37.187Z,0.699999988
2024-02-13T11:43:38.099Z,1.100000024
2024-02-13T11:44:38.857Z,2.599999905
2024-02-13T11:45:39.717Z,2.099999905
2024-02-13T11:46:41.234Z,1.5
2024-02-13T11:47:41.797Z,1.5
2024-02-13T11:48:42.788Z,1.100000024
2024-02-13T11:49:43.381Z,0.899999976
2024-02-13T11:50:44.085Z,1
2024-02-13T11:51:44.849Z,0.899999976
2024-02-13T11:52:46.045Z,1.100000024
2024-02-13T11:53:47.059Z,1.100000024
2024-02-13T11:54:48.365Z,0.899999976
2024-02-13T11:55:49.886Z,0.699999988
2024-02-13T11:56:51.512Z,0.699999988
2024-02-13T11:57:52.651Z,0.899999976
2024-02-13T11:58:54.085Z,0.800000012
2024-02-13T11:59:55.453Z,0.699999988